createdAt,value
2022-12-01T00:00:01.093Z,0.00
2022-12-01T00:01:01.004Z,0.00
2022-12-01T00:02:02.328Z,0.00
2022-12-01T00:03:01.053Z,0.00
2022-12-01T00:04:00.813Z,0.00
2022-12-01T00:05:00.806Z,0.00
2022-12-01T00:06:00.706Z,0.00
2022-12-01T00:07:00.644Z,0.00
2022-12-01T00:08:00.628Z,0.00
2022-12-01T00:09:00.521Z,0.00
2022-12-01T00:10:00.486Z,0.00
2022-12-01T00:11:00.362Z,0.00
2022-12-01T00:12:00.364Z,0.00
2022-12-01T00:13:00.268Z,0.00
2022-12-01T00:14:00.182Z,0.00
2022-12-01T00:15:00.111Z,0.00
2022-12-01T00:16:00.176Z,0.00
2022-12-01T00:17:00.090Z,0.00
2022-12-01T00:17:59.930Z,0.00
2022-12-01T00:18:59.905Z,0.00
2022-12-01T00:21:34.335Z,0.00
2022-12-01T00:22:09.968Z,0.00
2022-12-01T00:23:09.929Z,0.00
2022-12-01T00:24:09.872Z,0.00
2022-12-01T00:25:09.775Z,0.00
2022-12-01T00:26:09.737Z,0.00
2022-12-01T00:27:09.659Z,0.00
2022-12-01T00:28:09.606Z,0.00
2022-12-01T00:29:09.538Z,0.00
2022-12-01T00:30:09.485Z,0.00
2022-12-01T00:31:09.397Z,0.00
2022-12-01T00:32:09.424Z,0.00
2022-12-01T00:33:09.260Z,0.00
2022-12-01T00:34:11.477Z,0.00
2022-12-01T00:35:09.110Z,0.00
2022-12-01T00:36:09.069Z,0.00
2022-12-01T00:37:09.036Z,0.00
2022-12-01T00:38:08.932Z,0.00
2022-12-01T00:39:08.901Z,0.00
2022-12-01T00:40:08.817Z,0.00
2022-12-01T00:41:08.764Z,0.00
2022-12-01T00:42:13.072Z,0.00
2022-12-01T00:43:08.632Z,0.00
2022-12-01T00:44:08.562Z,0.00
2022-12-01T00:45:08.515Z,0.00
2022-12-01T00:46:08.552Z,0.00
2022-12-01T00:47:08.372Z,0.00
2022-12-01T00:48:08.309Z,0.00
2022-12-01T00:49:08.216Z,0.00
2022-12-01T00:50:08.189Z,0.00
2022-12-01T00:51:08.128Z,0.00
2022-12-01T00:52:08.048Z,0.00
2022-12-01T00:53:07.987Z,0.00
2022-12-01T00:54:07.923Z,0.00
2022-12-01T00:55:07.886Z,0.00
2022-12-01T00:56:07.826Z,0.00
2022-12-01T00:59:26.208Z,0.00
2022-12-01T01:00:27.139Z,0.00
2022-12-01T01:01:27.238Z,0.00
2022-12-01T01:02:27.038Z,0.00
2022-12-01T01:03:26.922Z,0.00
2022-12-01T01:04:26.870Z,0.00
2022-12-01T01:05:26.763Z,0.00
2022-12-01T01:06:26.704Z,0.00
2022-12-01T01:07:26.676Z,0.00
2022-12-01T01:08:26.603Z,0.00
2022-12-01T01:09:26.546Z,0.00
2022-12-01T01:10:26.519Z,0.00
2022-12-01T01:11:26.406Z,0.00
2022-12-01T01:12:26.344Z,0.00
2022-12-01T01:13:26.309Z,0.00
2022-12-01T01:14:26.215Z,0.00
2022-12-01T01:15:26.125Z,0.00
2022-12-01T01:16:26.160Z,0.00
2022-12-01T01:17:26.087Z,0.00
2022-12-01T01:18:25.974Z,0.00
2022-12-01T01:19:25.908Z,0.00
2022-12-01T01:20:25.860Z,0.00
2022-12-01T01:21:25.800Z,0.00
2022-12-01T01:22:25.763Z,0.00
2022-12-01T01:23:25.668Z,0.00
2022-12-01T01:24:25.590Z,0.00
2022-12-01T01:25:25.496Z,0.00
2022-12-01T01:26:25.430Z,0.00
2022-12-01T01:27:25.411Z,0.00
2022-12-01T01:28:25.377Z,0.00
2022-12-01T01:29:25.282Z,0.00
2022-12-01T01:30:25.259Z,0.00
2022-12-01T01:31:25.154Z,0.00
2022-12-01T01:32:25.104Z,0.00
2022-12-01T01:33:25.031Z,0.00
2022-12-01T01:35:35.360Z,0.00
2022-12-01T01:36:35.093Z,0.00
2022-12-01T01:37:35.069Z,0.00
2022-12-01T01:38:34.967Z,0.00
2022-12-01T01:39:34.924Z,0.00
2022-12-01T01:40:34.865Z,0.00
2022-12-01T01:41:34.788Z,0.00
2022-12-01T01:42:34.713Z,0.00
2022-12-01T01:43:34.647Z,0.00
2022-12-01T01:44:34.605Z,0.00
2022-12-01T01:45:34.604Z,0.00
2022-12-01T01:46:34.539Z,0.00
2022-12-01T01:47:34.382Z,0.00
2022-12-01T01:48:34.330Z,0.00
2022-12-01T01:49:34.286Z,0.00
2022-12-01T01:50:34.195Z,0.00
2022-12-01T01:51:34.130Z,0.00
2022-12-01T01:52:34.041Z,0.00
2022-12-01T01:53:34.023Z,0.00
2022-12-01T01:54:33.969Z,0.00
2022-12-01T01:55:33.913Z,0.00
2022-12-01T01:56:33.810Z,0.00
2022-12-01T01:57:33.778Z,0.00
2022-12-01T01:58:33.667Z,0.00
2022-12-01T01:59:33.611Z,0.00
2022-12-01T02:00:33.555Z,0.00
2022-12-01T02:01:33.589Z,0.00
2022-12-01T02:02:33.504Z,0.00
2022-12-01T02:03:33.370Z,0.00
2022-12-01T02:04:33.319Z,0.00
2022-12-01T02:05:33.279Z,0.00
2022-12-01T02:06:33.145Z,0.00
2022-12-01T02:07:33.168Z,0.00
2022-12-01T02:08:33.017Z,0.00
2022-12-01T02:09:32.982Z,0.00
2022-12-01T02:10:32.920Z,0.00
2022-12-01T02:11:34.041Z,0.00
2022-12-01T02:12:32.763Z,0.00
2022-12-01T02:13:32.703Z,0.00
2022-12-01T02:14:32.681Z,0.00
2022-12-01T02:15:32.624Z,0.00
2022-12-01T02:16:32.595Z,0.00
2022-12-01T02:17:35.241Z,0.00
2022-12-01T02:18:32.410Z,0.00
2022-12-01T02:19:32.328Z,0.00
2022-12-01T02:20:32.279Z,0.00
2022-12-01T02:21:32.212Z,0.00
2022-12-01T02:22:32.153Z,0.00
2022-12-01T02:23:32.112Z,0.00
2022-12-01T02:24:32.022Z,0.00
2022-12-01T02:25:31.962Z,0.00
2022-12-01T02:26:31.900Z,0.00
2022-12-01T02:27:31.835Z,0.00
2022-12-01T02:28:31.766Z,0.00
2022-12-01T02:31:14.879Z,0.00
2022-12-01T02:32:12.620Z,0.00
2022-12-01T02:33:12.557Z,0.00
2022-12-01T02:34:12.521Z,0.00
2022-12-01T02:35:12.450Z,0.00
2022-12-01T02:36:12.376Z,0.00
2022-12-01T02:37:12.297Z,0.00
2022-12-01T02:38:12.267Z,0.00
2022-12-01T02:39:12.148Z,0.00
2022-12-01T02:40:12.108Z,0.00
2022-12-01T02:41:12.089Z,0.00
2022-12-01T02:42:11.951Z,0.00
2022-12-01T02:43:11.918Z,0.00
2022-12-01T02:44:11.876Z,0.00
2022-12-01T02:45:11.810Z,0.00
2022-12-01T02:46:11.802Z,0.00
2022-12-01T02:47:11.667Z,0.00
2022-12-01T02:48:11.592Z,0.00
2022-12-01T02:49:11.500Z,0.00
2022-12-01T02:50:11.467Z,0.00
2022-12-01T02:51:11.397Z,0.00
2022-12-01T02:52:11.307Z,0.00
2022-12-01T02:53:11.281Z,0.00
2022-12-01T02:54:11.178Z,0.00
2022-12-01T02:55:11.149Z,0.00
2022-12-01T02:56:11.078Z,0.00
2022-12-01T02:57:11.015Z,0.00
2022-12-01T02:58:10.978Z,0.00
2022-12-01T02:59:10.872Z,0.00
2022-12-01T03:00:10.824Z,0.00
2022-12-01T03:01:10.819Z,0.00
2022-12-01T03:02:10.686Z,0.00
2022-12-01T03:03:10.631Z,0.00
2022-12-01T03:04:10.563Z,0.00
2022-12-01T03:05:31.499Z,0.00
2022-12-01T03:06:10.409Z,0.00
2022-12-01T03:07:10.372Z,0.00
2022-12-01T03:08:10.282Z,0.00
2022-12-01T03:09:10.238Z,0.00
2022-12-01T03:10:10.183Z,0.00
2022-12-01T03:11:10.158Z,0.00
2022-12-01T03:12:10.078Z,0.00
2022-12-01T03:13:10.015Z,0.00
2022-12-01T03:14:09.946Z,0.00
2022-12-01T03:15:09.879Z,0.00
2022-12-01T03:16:09.945Z,0.00
2022-12-01T03:17:09.735Z,0.00
2022-12-01T03:18:09.664Z,0.00
2022-12-01T03:19:09.596Z,0.00
2022-12-01T03:20:09.534Z,0.00
2022-12-01T03:21:09.471Z,0.00
2022-12-01T03:22:09.436Z,0.00
2022-12-01T03:23:11.735Z,0.00
2022-12-01T03:24:09.306Z,0.00
2022-12-01T03:25:09.184Z,0.00
2022-12-01T03:26:09.210Z,0.00
2022-12-01T03:27:09.081Z,0.00
2022-12-01T03:28:24.310Z,0.00
2022-12-01T03:29:09.006Z,0.00
2022-12-01T03:30:08.913Z,0.00
2022-12-01T03:31:08.876Z,0.00
2022-12-01T03:32:08.795Z,0.00
2022-12-01T03:33:08.732Z,0.00
2022-12-01T03:34:08.610Z,0.00
2022-12-01T03:35:08.582Z,0.00
2022-12-01T03:36:08.523Z,0.00
2022-12-01T03:37:08.419Z,0.00
2022-12-01T03:38:08.399Z,0.00
2022-12-01T03:39:08.315Z,0.00
2022-12-01T03:40:08.276Z,0.00
2022-12-01T03:41:10.609Z,0.00
2022-12-01T03:42:08.131Z,0.00
2022-12-01T03:43:08.034Z,0.00
2022-12-01T03:44:07.969Z,0.00
2022-12-01T03:45:07.901Z,0.00
2022-12-01T03:46:07.919Z,0.00
2022-12-01T03:47:07.824Z,0.00
2022-12-01T03:48:07.735Z,0.00
2022-12-01T03:49:07.696Z,0.00
2022-12-01T03:50:07.596Z,0.00
2022-12-01T03:51:07.510Z,0.00
2022-12-01T03:52:07.530Z,0.00
2022-12-01T03:53:07.402Z,0.00
2022-12-01T03:54:07.344Z,0.00
2022-12-01T03:55:07.280Z,0.00
2022-12-01T03:56:07.250Z,0.00
2022-12-01T03:57:07.178Z,0.00
2022-12-01T03:58:07.066Z,0.00
2022-12-01T03:59:07.072Z,0.00
2022-12-01T04:00:06.966Z,0.00
2022-12-01T04:01:06.895Z,0.00
2022-12-01T04:02:06.915Z,0.00
2022-12-01T04:03:06.789Z,0.00
2022-12-01T04:04:06.737Z,0.00
2022-12-01T04:05:06.680Z,0.00
2022-12-01T04:06:06.571Z,0.00
2022-12-01T04:07:06.482Z,0.00
2022-12-01T04:08:06.548Z,0.00
2022-12-01T04:09:06.409Z,0.00
2022-12-01T04:10:06.338Z,0.00
2022-12-01T04:11:06.272Z,0.00
2022-12-01T04:12:06.190Z,0.00
2022-12-01T04:13:06.121Z,0.00
2022-12-01T04:14:06.028Z,0.00
2022-12-01T04:15:06.017Z,0.00
2022-12-01T04:16:06.011Z,0.00
2022-12-01T04:17:05.873Z,0.00
2022-12-01T04:18:05.796Z,0.00
2022-12-01T04:19:05.763Z,0.00
2022-12-01T04:20:05.668Z,0.00
2022-12-01T04:21:05.579Z,0.00
2022-12-01T04:22:05.542Z,0.00
2022-12-01T04:23:05.488Z,0.00
2022-12-01T04:24:05.412Z,0.00
2022-12-01T04:25:05.373Z,0.00
2022-12-01T04:26:05.315Z,0.00
2022-12-01T04:27:05.227Z,0.00
2022-12-01T04:28:05.155Z,0.00
2022-12-01T04:29:05.123Z,0.00
2022-12-01T04:30:04.999Z,0.00
2022-12-01T04:31:05.057Z,0.00
2022-12-01T04:32:04.922Z,0.00
2022-12-01T04:33:04.807Z,0.00
2022-12-01T04:34:04.774Z,0.00
2022-12-01T04:36:47.691Z,0.00
2022-12-01T04:37:48.650Z,0.00
2022-12-01T04:38:48.537Z,0.00
2022-12-01T04:39:48.788Z,0.00
2022-12-01T04:40:48.414Z,0.00
2022-12-01T04:41:48.410Z,0.00
2022-12-01T04:42:48.307Z,0.00
2022-12-01T04:43:48.248Z,0.00
2022-12-01T04:44:48.179Z,0.00
2022-12-01T04:45:48.138Z,0.00
2022-12-01T04:46:48.105Z,0.00
2022-12-01T04:47:47.967Z,0.00
2022-12-01T04:48:47.969Z,0.00
2022-12-01T04:49:48.171Z,0.00
2022-12-01T04:50:47.825Z,0.00
2022-12-01T04:51:47.755Z,0.00
2022-12-01T04:52:47.688Z,0.00
2022-12-01T04:53:47.613Z,0.00
2022-12-01T04:54:47.561Z,0.00
2022-12-01T04:55:47.474Z,0.00
2022-12-01T04:56:47.436Z,0.00
2022-12-01T04:57:47.368Z,0.00
2022-12-01T04:58:47.279Z,0.00
2022-12-01T04:59:47.450Z,0.00
2022-12-01T05:00:47.241Z,0.00
2022-12-01T05:01:47.205Z,0.00
2022-12-01T05:02:46.999Z,0.00
2022-12-01T05:03:46.961Z,0.00
2022-12-01T05:04:46.892Z,0.00
2022-12-01T05:05:46.842Z,0.00
2022-12-01T05:06:46.789Z,0.00
2022-12-01T05:07:46.784Z,0.00
2022-12-01T05:08:46.617Z,0.00
2022-12-01T05:09:46.977Z,0.00
2022-12-01T05:10:46.506Z,0.00
2022-12-01T05:11:46.484Z,0.00
2022-12-01T05:12:46.359Z,0.00
2022-12-01T05:13:46.290Z,0.00
2022-12-01T05:14:46.276Z,0.00
2022-12-01T05:15:46.184Z,0.00
2022-12-01T05:16:46.140Z,0.00
2022-12-01T05:17:46.067Z,0.00
2022-12-01T05:18:46.059Z,0.00
2022-12-01T05:19:46.041Z,0.00
2022-12-01T05:20:45.865Z,0.00
2022-12-01T05:21:45.778Z,0.00
2022-12-01T05:23:04.882Z,0.00
2022-12-01T05:23:45.745Z,0.00
2022-12-01T05:24:45.588Z,0.00
2022-12-01T05:25:45.528Z,0.00
2022-12-01T05:26:45.480Z,0.00
2022-12-01T05:27:45.454Z,0.00
2022-12-01T05:28:45.380Z,0.00
2022-12-01T05:29:45.330Z,0.00
2022-12-01T05:30:45.254Z,0.00
2022-12-01T05:31:45.219Z,0.00
2022-12-01T05:32:45.074Z,0.00
2022-12-01T05:33:45.038Z,0.00
2022-12-01T05:34:44.969Z,0.00
2022-12-01T05:35:44.921Z,0.00
2022-12-01T05:36:44.844Z,0.00
2022-12-01T05:37:44.802Z,0.00
2022-12-01T05:38:44.713Z,0.00
2022-12-01T05:39:44.620Z,0.00
2022-12-01T05:40:44.581Z,0.00
2022-12-01T05:41:44.562Z,0.00
2022-12-01T05:42:44.481Z,0.00
2022-12-01T05:43:44.365Z,0.00
2022-12-01T05:44:44.329Z,0.00
2022-12-01T05:45:44.265Z,0.00
2022-12-01T05:46:44.261Z,0.00
2022-12-01T05:47:44.187Z,0.00
2022-12-01T05:48:44.111Z,0.00
2022-12-01T05:49:44.041Z,0.00
2022-12-01T05:50:43.915Z,0.00
2022-12-01T05:51:43.868Z,0.00
2022-12-01T05:52:43.798Z,0.00
2022-12-01T05:53:43.772Z,0.00
2022-12-01T05:54:43.662Z,0.00
2022-12-01T05:55:43.663Z,0.00
2022-12-01T05:56:43.585Z,0.00
2022-12-01T05:57:43.520Z,0.00
2022-12-01T05:58:43.433Z,0.00
2022-12-01T05:59:43.389Z,0.00
2022-12-01T06:00:45.908Z,0.00
2022-12-01T06:01:43.296Z,0.00
2022-12-01T06:02:43.185Z,0.00
2022-12-01T06:03:43.195Z,0.00
2022-12-01T06:04:43.019Z,0.00
2022-12-01T06:06:03.999Z,0.00
2022-12-01T06:06:42.922Z,0.00
2022-12-01T06:07:42.894Z,0.00
2022-12-01T06:08:42.849Z,0.00
2022-12-01T06:09:42.728Z,0.00
2022-12-01T06:10:42.641Z,0.00
2022-12-01T06:11:42.643Z,0.00
2022-12-01T06:12:42.564Z,0.00
2022-12-01T06:13:42.470Z,0.00
2022-12-01T06:14:42.405Z,0.00
2022-12-01T06:15:42.366Z,0.00
2022-12-01T06:16:42.329Z,0.00
2022-12-01T06:17:42.232Z,0.00
2022-12-01T06:18:42.127Z,0.00
2022-12-01T06:19:42.091Z,0.00
2022-12-01T06:20:42.019Z,0.00
2022-12-01T06:21:41.957Z,0.00
2022-12-01T06:22:41.917Z,0.00
2022-12-01T06:26:00.300Z,0.00
2022-12-01T06:27:01.257Z,0.00
2022-12-01T06:28:01.180Z,0.00
2022-12-01T06:29:01.107Z,0.00
2022-12-01T06:30:01.044Z,0.00
2022-12-01T06:31:03.527Z,0.00
2022-12-01T06:32:00.935Z,0.00
2022-12-01T06:33:00.839Z,0.00
2022-12-01T06:34:00.746Z,1.00
2022-12-01T06:35:00.741Z,0.00
2022-12-01T06:36:00.712Z,0.00
2022-12-01T06:37:00.544Z,1.00
2022-12-01T06:38:00.476Z,2.00
2022-12-01T06:39:00.446Z,2.00
2022-12-01T06:40:00.367Z,2.00
2022-12-01T06:41:00.282Z,3.00
2022-12-01T06:42:00.705Z,3.00
2022-12-01T06:43:00.158Z,1.00
2022-12-01T06:44:00.133Z,2.00
2022-12-01T06:45:00.030Z,2.00
2022-12-01T06:46:02.399Z,2.00
2022-12-01T06:46:59.947Z,3.00
2022-12-01T06:47:59.841Z,3.00
2022-12-01T06:48:59.793Z,3.00
2022-12-01T06:50:01.118Z,6.00
2022-12-01T06:50:59.697Z,5.00
2022-12-01T06:52:01.070Z,7.00
2022-12-01T06:52:59.508Z,5.00
2022-12-01T06:54:05.043Z,6.00
2022-12-01T06:54:59.364Z,10.00
2022-12-01T06:55:59.309Z,9.00
2022-12-01T06:56:59.242Z,10.00
2022-12-01T06:57:59.212Z,10.00
2022-12-01T06:58:59.144Z,9.00
2022-12-01T06:59:59.076Z,7.00
2022-12-01T07:01:20.028Z,15.00
2022-12-01T07:01:59.102Z,17.00
2022-12-01T07:02:58.945Z,18.00
2022-12-01T07:03:58.789Z,19.00
2022-12-01T07:04:58.755Z,20.00
2022-12-01T07:05:58.851Z,23.00
2022-12-01T07:06:58.588Z,23.00
2022-12-01T07:07:59.862Z,25.00
2022-12-01T07:08:58.443Z,26.00
2022-12-01T07:09:58.402Z,25.00
2022-12-01T07:10:58.339Z,29.00
2022-12-01T07:11:58.281Z,30.00
2022-12-01T07:12:58.241Z,36.00
2022-12-01T07:13:58.176Z,33.00
2022-12-01T07:14:58.088Z,35.00
2022-12-01T07:15:58.048Z,36.00
2022-12-01T07:16:58.945Z,34.00
2022-12-01T07:17:57.923Z,36.00
2022-12-01T07:21:16.217Z,42.00
2022-12-01T07:22:17.117Z,39.00
2022-12-01T07:23:17.052Z,35.00
2022-12-01T07:24:16.983Z,39.00
2022-12-01T07:25:16.900Z,39.00
2022-12-01T07:26:16.884Z,38.00
2022-12-01T07:27:16.823Z,42.00
2022-12-01T07:28:16.707Z,43.00
2022-12-01T07:29:16.672Z,45.00
2022-12-01T07:30:16.603Z,45.00
2022-12-01T07:31:16.654Z,56.00
2022-12-01T07:32:16.937Z,49.00
2022-12-01T07:33:16.441Z,48.00
2022-12-01T07:34:16.376Z,53.00
2022-12-01T07:35:16.289Z,58.00
2022-12-01T07:36:16.201Z,64.00
2022-12-01T07:37:16.173Z,70.00
2022-12-01T07:38:21.939Z,88.00
2022-12-01T07:39:16.005Z,105.00
2022-12-01T07:40:15.963Z,113.00
2022-12-01T07:41:15.893Z,117.00
2022-12-01T07:42:15.835Z,144.00
2022-12-01T07:43:15.766Z,162.00
2022-12-01T07:44:15.689Z,183.00
2022-12-01T07:45:15.636Z,226.00
2022-12-01T07:46:21.813Z,232.00
2022-12-01T07:47:15.541Z,216.00
2022-12-01T07:48:15.443Z,200.00
2022-12-01T07:49:15.387Z,205.00
2022-12-01T07:50:15.331Z,204.00
2022-12-01T07:51:15.262Z,198.00
2022-12-01T07:52:15.178Z,185.00
2022-12-01T07:53:15.179Z,161.00
2022-12-01T07:54:15.086Z,161.00
2022-12-01T07:55:14.995Z,167.00
2022-12-01T07:56:16.145Z,170.00
2022-12-01T07:57:14.868Z,168.00
2022-12-01T07:58:14.828Z,164.00
2022-12-01T07:59:14.763Z,156.00
2022-12-01T08:00:14.699Z,147.00
2022-12-01T08:01:14.686Z,147.00
2022-12-01T08:02:14.807Z,151.00
2022-12-01T08:03:14.546Z,152.00
2022-12-01T08:04:14.389Z,161.00
2022-12-01T08:05:14.335Z,170.00
2022-12-01T08:06:14.289Z,179.00
2022-12-01T08:07:14.223Z,175.00
2022-12-01T08:08:14.228Z,172.00
2022-12-01T08:09:14.123Z,173.00
2022-12-01T08:10:14.315Z,172.00
2022-12-01T08:11:13.965Z,177.00
2022-12-01T08:12:13.893Z,183.00
2022-12-01T08:13:17.308Z,176.00
2022-12-01T08:14:13.781Z,184.00
2022-12-01T08:15:13.734Z,197.00
2022-12-01T08:16:13.783Z,215.00
2022-12-01T08:17:14.017Z,212.00
2022-12-01T08:18:13.572Z,222.00
2022-12-01T08:19:13.444Z,234.00
2022-12-01T08:20:13.430Z,238.00
2022-12-01T08:21:13.326Z,221.00
2022-12-01T08:22:13.256Z,211.00
2022-12-01T08:23:13.196Z,211.00
2022-12-01T08:24:13.129Z,228.00
2022-12-01T08:25:13.061Z,221.00
2022-12-01T08:26:13.007Z,226.00
2022-12-01T08:27:12.938Z,228.00
2022-12-01T08:28:12.866Z,237.00
2022-12-01T08:29:18.541Z,248.00
2022-12-01T08:30:12.770Z,251.00
2022-12-01T08:31:12.748Z,251.00
2022-12-01T08:32:12.634Z,250.00
2022-12-01T08:33:12.548Z,271.00
2022-12-01T08:34:12.493Z,279.00
2022-12-01T08:35:12.387Z,287.00
2022-12-01T08:36:12.340Z,289.00
2022-12-01T08:37:12.322Z,285.00
2022-12-01T08:38:12.698Z,314.00
2022-12-01T08:39:12.141Z,331.00
2022-12-01T08:40:12.097Z,324.00
2022-12-01T08:41:12.037Z,319.00
2022-12-01T08:42:11.964Z,331.00
2022-12-01T08:43:28.348Z,338.00
2022-12-01T08:44:11.985Z,360.00
2022-12-01T08:45:11.772Z,375.00
2022-12-01T08:46:11.762Z,360.00
2022-12-01T08:47:15.738Z,351.00
2022-12-01T08:48:11.673Z,358.00
2022-12-01T08:49:11.520Z,381.00
2022-12-01T08:50:11.530Z,406.00
2022-12-01T08:51:11.387Z,440.00
2022-12-01T08:52:11.294Z,431.00
2022-12-01T08:53:11.283Z,414.00
2022-12-01T08:54:11.192Z,435.00
2022-12-01T08:55:11.142Z,446.00
2022-12-01T08:56:11.076Z,447.00
2022-12-01T08:57:10.995Z,440.00
2022-12-01T08:58:10.932Z,429.00
2022-12-01T08:59:10.840Z,437.00
2022-12-01T09:00:10.829Z,443.00
2022-12-01T09:01:10.712Z,431.00
2022-12-01T09:02:10.755Z,429.00
2022-12-01T09:03:10.667Z,453.00
2022-12-01T09:04:10.577Z,468.00
2022-12-01T09:05:10.509Z,465.00
2022-12-01T09:06:10.430Z,438.00
2022-12-01T09:07:10.347Z,445.00
2022-12-01T09:08:31.295Z,408.00
2022-12-01T09:09:10.200Z,404.00
2022-12-01T09:10:10.166Z,392.00
2022-12-01T09:11:10.098Z,369.00
2022-12-01T09:12:10.034Z,340.00
2022-12-01T09:13:09.967Z,337.00
2022-12-01T09:14:09.921Z,352.00
2022-12-01T09:15:10.680Z,369.00
2022-12-01T09:16:09.803Z,393.00
2022-12-01T09:17:09.719Z,407.00
2022-12-01T09:18:09.692Z,412.00
2022-12-01T09:19:09.619Z,441.00
2022-12-01T09:20:09.574Z,445.00
2022-12-01T09:21:09.454Z,468.00
2022-12-01T09:22:09.400Z,485.00
2022-12-01T09:23:09.367Z,487.00
2022-12-01T09:24:09.272Z,500.00
2022-12-01T09:25:09.195Z,500.00
2022-12-01T09:26:13.385Z,473.00
2022-12-01T09:27:09.138Z,481.00
2022-12-01T09:28:09.013Z,490.00
2022-12-01T09:29:08.969Z,493.00
2022-12-01T09:30:08.895Z,482.00
2022-12-01T09:31:09.001Z,486.00
2022-12-01T09:32:08.792Z,483.00
2022-12-01T09:33:08.711Z,514.00
2022-12-01T09:34:08.594Z,485.00
2022-12-01T09:35:08.583Z,448.00
2022-12-01T09:36:08.521Z,489.00
2022-12-01T09:37:08.450Z,470.00
2022-12-01T09:38:08.378Z,474.00
2022-12-01T09:39:08.308Z,456.00
2022-12-01T09:40:08.216Z,411.00
2022-12-01T09:41:08.197Z,423.00
2022-12-01T09:42:09.328Z,426.00
2022-12-01T09:43:08.049Z,371.00
2022-12-01T09:46:27.433Z,468.00
2022-12-01T09:47:28.269Z,460.00
2022-12-01T09:48:28.225Z,482.00
2022-12-01T09:49:28.184Z,475.00
2022-12-01T09:50:28.063Z,451.00
2022-12-01T09:51:28.027Z,430.00
2022-12-01T09:52:27.960Z,402.00
2022-12-01T09:53:27.925Z,400.00
2022-12-01T09:54:27.804Z,414.00
2022-12-01T09:55:27.772Z,420.00
2022-12-01T09:56:27.686Z,429.00
2022-12-01T09:57:27.673Z,432.00
2022-12-01T09:58:27.583Z,435.00
2022-12-01T09:59:27.555Z,439.00
2022-12-01T10:00:27.419Z,420.00
2022-12-01T10:01:27.609Z,395.00
2022-12-01T10:02:27.372Z,373.00
2022-12-01T10:06:46.557Z,421.00
2022-12-01T10:07:46.525Z,424.00
2022-12-01T10:08:46.405Z,393.00
2022-12-01T10:09:46.509Z,369.00
2022-12-01T10:10:46.244Z,364.00
2022-12-01T10:11:46.298Z,382.00
2022-12-01T10:12:46.140Z,407.00
2022-12-01T10:13:46.074Z,413.00
2022-12-01T10:14:46.040Z,400.00
2022-12-01T10:15:45.928Z,383.00
2022-12-01T10:16:45.880Z,375.00
2022-12-01T10:17:45.834Z,367.00
2022-12-01T10:18:46.490Z,375.00
2022-12-01T10:19:46.760Z,391.00
2022-12-01T10:20:45.625Z,390.00
2022-12-01T10:21:45.559Z,381.00
2022-12-01T10:22:45.527Z,398.00
2022-12-01T10:26:03.864Z,426.00
2022-12-01T10:27:04.730Z,422.00
2022-12-01T10:28:04.661Z,437.00
2022-12-01T10:29:05.345Z,441.00
2022-12-01T10:30:04.538Z,443.00
2022-12-01T10:31:04.584Z,460.00
2022-12-01T10:32:04.418Z,473.00
2022-12-01T10:33:04.311Z,478.00
2022-12-01T10:34:04.271Z,470.00
2022-12-01T10:35:04.200Z,492.00
2022-12-01T10:36:04.150Z,537.00
2022-12-01T10:37:04.131Z,555.00
2022-12-01T10:38:04.902Z,547.00
2022-12-01T10:39:03.928Z,535.00
2022-12-01T10:40:03.893Z,523.00
2022-12-01T10:41:03.837Z,516.00
2022-12-01T10:42:03.789Z,502.00
2022-12-01T10:43:06.146Z,501.00
2022-12-01T10:44:03.651Z,513.00
2022-12-01T10:45:03.545Z,517.00
2022-12-01T10:46:03.535Z,510.00
2022-12-01T10:47:03.418Z,507.00
2022-12-01T10:48:03.410Z,518.00
2022-12-01T10:49:03.384Z,526.00
2022-12-01T10:50:03.335Z,528.00
2022-12-01T10:51:03.240Z,530.00
2022-12-01T10:52:03.106Z,535.00
2022-12-01T10:53:03.065Z,523.00
2022-12-01T10:54:02.999Z,514.00
2022-12-01T10:55:02.955Z,523.00
2022-12-01T10:56:02.890Z,546.00
2022-12-01T10:57:02.851Z,565.00
2022-12-01T10:58:07.709Z,583.00
2022-12-01T10:59:02.675Z,596.00
2022-12-01T11:00:02.680Z,591.00
2022-12-01T11:01:02.798Z,575.00
2022-12-01T11:02:02.663Z,553.00
2022-12-01T11:03:02.579Z,555.00
2022-12-01T11:04:02.422Z,566.00
2022-12-01T11:05:02.260Z,574.00
2022-12-01T11:06:02.278Z,578.00
2022-12-01T11:07:02.172Z,572.00
2022-12-01T11:08:02.173Z,570.00
2022-12-01T11:09:02.006Z,574.00
2022-12-01T11:10:01.965Z,568.00
2022-12-01T11:11:01.964Z,544.00
2022-12-01T11:12:02.663Z,530.00
2022-12-01T11:13:01.783Z,537.00
2022-12-01T11:14:01.677Z,545.00
2022-12-01T11:15:01.672Z,545.00
2022-12-01T11:16:02.230Z,545.00
2022-12-01T11:17:01.553Z,566.00
2022-12-01T11:18:01.481Z,561.00
2022-12-01T11:21:40.924Z,535.00
2022-12-01T11:22:20.653Z,526.00
2022-12-01T11:23:20.620Z,540.00
2022-12-01T11:24:20.548Z,555.00
2022-12-01T11:25:20.460Z,563.00
2022-12-01T11:26:20.371Z,574.00
2022-12-01T11:27:20.390Z,580.00
2022-12-01T11:28:20.265Z,595.00
2022-12-01T11:29:20.194Z,618.00
2022-12-01T11:30:20.306Z,622.00
2022-12-01T11:31:20.225Z,588.00
2022-12-01T11:32:20.030Z,575.00
2022-12-01T11:33:20.008Z,581.00
2022-12-01T11:34:19.880Z,590.00
2022-12-01T11:35:19.820Z,601.00
2022-12-01T11:36:19.779Z,639.00
2022-12-01T11:37:19.691Z,654.00
2022-12-01T11:38:35.131Z,683.00
2022-12-01T11:39:19.567Z,688.00
2022-12-01T11:40:19.524Z,653.00
2022-12-01T11:41:19.458Z,624.00
2022-12-01T11:42:19.400Z,612.00
2022-12-01T11:43:19.304Z,594.00
2022-12-01T11:45:19.179Z,580.00
2022-12-01T11:46:19.185Z,583.00
2022-12-01T11:47:24.138Z,591.00
2022-12-01T11:48:18.992Z,615.00
2022-12-01T11:49:18.898Z,638.00
2022-12-01T11:50:18.927Z,610.00
2022-12-01T11:51:19.271Z,578.00
2022-12-01T11:52:18.711Z,583.00
2022-12-01T11:53:18.637Z,581.00
2022-12-01T11:54:18.569Z,581.00
2022-12-01T11:55:18.517Z,590.00
2022-12-01T11:56:18.471Z,583.00
2022-12-01T11:57:33.883Z,575.00
2022-12-01T11:58:18.379Z,592.00
2022-12-01T11:59:18.313Z,590.00
2022-12-01T12:00:18.194Z,591.00
2022-12-01T12:01:21.972Z,558.00
2022-12-01T12:02:18.165Z,523.00
2022-12-01T12:03:18.100Z,510.00
2022-12-01T12:04:17.959Z,516.00
2022-12-01T12:05:17.866Z,506.00
2022-12-01T12:06:39.542Z,497.00
2022-12-01T12:07:17.778Z,503.00
2022-12-01T12:08:17.699Z,524.00
2022-12-01T12:09:17.654Z,514.00
2022-12-01T12:10:17.622Z,485.00
2022-12-01T12:11:17.522Z,472.00
2022-12-01T12:12:17.468Z,473.00
2022-12-01T12:13:17.377Z,445.00
2022-12-01T12:14:17.385Z,448.00
2022-12-01T12:15:17.287Z,439.00
2022-12-01T12:16:17.158Z,419.00
2022-12-01T12:17:17.188Z,416.00
2022-12-01T12:18:17.027Z,416.00
2022-12-01T12:19:16.996Z,415.00
2022-12-01T12:20:17.488Z,422.00
2022-12-01T12:21:16.869Z,456.00
2022-12-01T12:22:16.796Z,456.00
2022-12-01T12:23:16.735Z,462.00
2022-12-01T12:24:16.668Z,459.00
2022-12-01T12:25:16.606Z,481.00
2022-12-01T12:26:17.206Z,463.00
2022-12-01T12:27:16.517Z,452.00
2022-12-01T12:28:16.388Z,435.00
2022-12-01T12:29:16.323Z,444.00
2022-12-01T12:30:16.306Z,441.00
2022-12-01T12:31:16.290Z,463.00
2022-12-01T12:32:16.137Z,489.00
2022-12-01T12:33:18.603Z,515.00
2022-12-01T12:34:16.051Z,508.00
2022-12-01T12:35:15.939Z,508.00
2022-12-01T12:36:15.984Z,506.00
2022-12-01T12:37:15.814Z,513.00
2022-12-01T12:38:15.803Z,499.00
2022-12-01T12:39:16.912Z,488.00
2022-12-01T12:40:15.640Z,494.00
2022-12-01T12:41:15.609Z,475.00
2022-12-01T12:42:15.518Z,478.00
2022-12-01T12:43:15.446Z,489.00
2022-12-01T12:44:15.451Z,491.00
2022-12-01T12:45:15.429Z,479.00
2022-12-01T12:46:15.295Z,480.00
2022-12-01T12:47:15.190Z,482.00
2022-12-01T12:48:15.157Z,479.00
2022-12-01T12:49:22.193Z,487.00
2022-12-01T12:50:15.046Z,492.00
2022-12-01T12:51:17.402Z,485.00
2022-12-01T12:52:14.883Z,481.00
2022-12-01T12:53:14.813Z,490.00
2022-12-01T12:54:14.815Z,511.00
2022-12-01T12:55:14.787Z,507.00
2022-12-01T12:56:14.618Z,491.00
2022-12-01T12:57:14.627Z,487.00
2022-12-01T12:58:14.485Z,496.00
2022-12-01T12:59:14.544Z,488.00
2022-12-01T13:00:14.355Z,458.00
2022-12-01T13:01:14.342Z,442.00
2022-12-01T13:02:14.231Z,480.00
2022-12-01T13:03:14.210Z,493.00
2022-12-01T13:04:14.133Z,464.00
2022-12-01T13:05:14.049Z,436.00
2022-12-01T13:06:14.036Z,436.00
2022-12-01T13:07:13.908Z,420.00
2022-12-01T13:08:13.877Z,423.00
2022-12-01T13:09:13.777Z,426.00
2022-12-01T13:10:13.823Z,440.00
2022-12-01T13:11:13.661Z,437.00
2022-12-01T13:12:13.615Z,417.00
2022-12-01T13:13:13.536Z,402.00
2022-12-01T13:14:13.432Z,407.00
2022-12-01T13:15:13.436Z,419.00
2022-12-01T13:16:13.418Z,400.00
2022-12-01T13:17:13.238Z,384.00
2022-12-01T13:18:13.228Z,382.00